Time;durP1;ratioP1;P1;durP2;ratioP2;P2;SDS_P1;SDS_P2;PMS_P1;PMS_P2;Temp;Humidity;BMP_temperature;BMP_pressure;BME280_temperature;BME280_humidity;BME280_pressure;Samples;Min_cycle;Max_cycle;Signal;HPM_P1;HPM_P2
2022/04/14 00:00:32;;;;;;;11.27;9.95;;;7.10;99.90;;;;;;5032747;28;20028;-88
2022/04/14 00:02:58;;;;;;;10.55;9.45;;;7.10;99.90;;;;;;5031929;28;20029;-88
2022/04/14 00:05:23;;;;;;;10.75;9.55;;;7.00;99.90;;;;;;5028927;28;20029;-88
2022/04/14 00:07:49;;;;;;;11.45;10.45;;;7.10;99.90;;;;;;5051490;28;20021;-87
2022/04/14 00:10:15;;;;;;;12.05;10.82;;;7.10;99.90;;;;;;5052780;28;20029;-88
2022/04/14 00:12:41;;;;;;;11.85;10.82;;;7.20;99.90;;;;;;5027581;28;20025;-88
2022/04/14 00:15:08;;;;;;;12.40;11.20;;;7.20;99.90;;;;;;5051636;28;20050;-88
2022/04/14 00:17:35;;;;;;;11.93;10.75;;;7.10;99.90;;;;;;5052329;28;20060;-87
2022/04/14 00:20:02;;;;;;;11.82;10.80;;;7.10;99.90;;;;;;5034444;28;20112;-87
2022/04/14 00:22:28;;;;;;;12.13;10.93;;;7.00;99.90;;;;;;5044297;28;20064;-87
2022/04/14 00:24:54;;;;;;;12.15;11.00;;;7.00;99.90;;;;;;5034873;28;20029;-88
2022/04/14 00:27:20;;;;;;;11.98;10.98;;;7.00;99.90;;;;;;5053060;28;20025;-88
2022/04/14 00:29:49;;;;;;;13.13;11.93;;;6.90;99.90;;;;;;5051631;28;20524;-88
2022/04/14 00:32:14;;;;;;;11.70;10.52;;;6.90;99.90;;;;;;5027472;28;20095;-87
2022/04/14 00:34:40;;;;;;;12.55;11.02;;;6.90;99.90;;;;;;5049917;28;20535;-88
2022/04/14 00:37:07;;;;;;;12.02;10.93;;;6.80;99.90;;;;;;5019250;28;20059;-88
2022/04/14 00:39:32;;;;;;;11.82;10.65;;;6.80;99.90;;;;;;5036270;28;20075;-88
2022/04/14 00:41:58;;;;;;;10.90;10.10;;;6.80;99.90;;;;;;5033464;28;20535;-88
2022/04/14 00:44:24;;;;;;;11.02;9.15;;;6.70;99.90;;;;;;5051695;28;20029;-88
2022/04/14 00:46:49;;;;;;;11.75;9.45;;;6.70;99.90;;;;;;5052677;28;20025;-88
2022/04/14 00:49:15;;;;;;;9.48;8.68;;;6.60;99.90;;;;;;5028468;28;20124;-88
2022/04/14 00:51:41;;;;;;;10.63;9.52;;;6.60;99.90;;;;;;5052397;28;20392;-87
2022/04/14 00:54:06;;;;;;;9.45;8.65;;;6.50;99.90;;;;;;5031632;28;20029;-88
2022/04/14 00:56:32;;;;;;;9.43;8.73;;;6.50;99.90;;;;;;5049007;28;20017;-87
2022/04/14 00:58:58;;;;;;;9.73;8.85;;;6.40;99.90;;;;;;5030383;28;20583;-88
2022/04/14 01:01:24;;;;;;;10.75;9.70;;;6.40;99.90;;;;;;5035627;28;20055;-89
2022/04/14 01:03:51;;;;;;;11.18;10.05;;;6.30;99.90;;;;;;5035445;28;20498;-88
2022/04/14 01:06:23;;;;;;;10.15;9.18;;;6.30;99.90;;;;;;5031509;28;20421;-88
2022/04/14 01:11:35;;;;;;;10.68;9.60;;;6.20;99.90;;;;;;5051449;28;19963;-88
2022/04/14 01:14:01;;;;;;;11.63;10.43;;;6.20;99.90;;;;;;5025632;28;20036;-88
2022/04/14 01:16:26;;;;;;;11.23;10.23;;;6.10;99.90;;;;;;5033580;28;20021;-89
2022/04/14 01:18:52;;;;;;;11.63;10.40;;;6.10;99.90;;;;;;5052212;28;20021;-88
2022/04/14 01:21:18;;;;;;;13.05;11.75;;;6.10;99.90;;;;;;5031647;28;20044;-88
2022/04/14 01:23:44;;;;;;;13.48;12.13;;;6.10;99.90;;;;;;5051948;28;20048;-88
2022/04/14 01:26:13;;;;;;;12.38;11.27;;;6.10;99.90;;;;;;5051043;28;20512;-88
2022/04/14 01:28:39;;;;;;;12.27;11.07;;;6.10;99.90;;;;;;5056083;28;20056;-88
2022/04/14 01:31:05;;;;;;;11.85;10.85;;;6.10;99.90;;;;;;5051085;28;20029;-88
2022/04/14 01:33:31;;;;;;;11.73;10.40;;;6.10;99.90;;;;;;5031258;28;20037;-88
2022/04/14 01:35:56;;;;;;;11.05;10.05;;;6.00;99.90;;;;;;5033208;28;20029;-88
2022/04/14 01:38:22;;;;;;;11.70;10.63;;;5.90;99.90;;;;;;5028106;28;20033;-88
2022/04/14 01:40:48;;;;;;;10.40;9.60;;;5.80;99.90;;;;;;5042892;28;20197;-87
2022/04/14 01:43:13;;;;;;;10.82;9.73;;;5.70;99.90;;;;;;5031891;28;20021;-87
2022/04/14 01:45:39;;;;;;;10.88;9.88;;;5.70;99.90;;;;;;5051732;28;20132;-88
2022/04/14 01:48:04;;;;;;;11.18;10.15;;;5.60;99.90;;;;;;5048205;28;20025;-88
2022/04/14 01:50:30;;;;;;;12.07;10.15;;;5.60;99.90;;;;;;5047250;28;20501;-88
2022/04/14 01:52:56;;;;;;;12.88;11.02;;;5.50;99.90;;;;;;5050716;28;20072;-88
2022/04/14 01:55:21;;;;;;;11.45;10.38;;;5.50;99.90;;;;;;5049759;28;20448;-88
2022/04/14 01:57:47;;;;;;;11.85;10.85;;;5.40;99.90;;;;;;5051465;28;20104;-87
2022/04/14 02:00:14;;;;;;;12.85;11.65;;;5.40;99.90;;;;;;5050214;28;20120;-88
2022/04/14 02:02:41;;;;;;;14.15;12.60;;;5.40;99.90;;;;;;5050828;28;20036;-88
2022/04/14 02:05:07;;;;;;;12.38;11.23;;;5.40;99.90;;;;;;5049130;28;20037;-88
2022/04/14 02:07:34;;;;;;;12.30;11.30;;;5.40;99.90;;;;;;5034106;28;20067;-88
2022/04/14 02:10:00;;;;;;;12.55;11.40;;;5.40;99.90;;;;;;5050998;28;20029;-87
2022/04/14 02:12:25;;;;;;;12.85;11.50;;;5.40;99.90;;;;;;5051072;28;20106;-88
2022/04/14 02:14:52;;;;;;;14.18;12.98;;;5.40;99.90;;;;;;5033704;28;20036;-87
2022/04/14 02:17:17;;;;;;;16.20;14.50;;;5.40;99.90;;;;;;5050351;28;20032;-87
2022/04/14 02:19:43;;;;;;;15.25;13.75;;;5.40;99.90;;;;;;5049310;28;20025;-88
2022/04/14 02:22:08;;;;;;;15.05;13.55;;;5.40;99.90;;;;;;5050239;28;20195;-88
2022/04/14 02:24:34;;;;;;;15.68;13.82;;;5.40;99.90;;;;;;5051257;28;20021;-88
2022/04/14 02:27:00;;;;;;;18.83;16.83;;;5.40;99.90;;;;;;5032447;28;20025;-88
2022/04/14 02:29:25;;;;;;;23.98;16.15;;;5.40;99.90;;;;;;5032646;28;20380;-88
2022/04/14 02:31:55;;;;;;;19.13;17.27;;;5.50;99.90;;;;;;5050479;28;20124;-87
2022/04/14 02:34:20;;;;;;;20.08;16.63;;;5.50;99.90;;;;;;5032377;28;20028;-87
2022/04/14 02:36:46;;;;;;;19.83;16.27;;;5.60;99.90;;;;;;5031747;28;20111;-88
2022/04/14 02:39:12;;;;;;;17.52;15.88;;;5.60;99.90;;;;;;5031971;28;20036;-88
2022/04/14 02:41:38;;;;;;;14.93;13.73;;;5.70;99.90;;;;;;5047556;28;20044;-88
2022/04/14 02:44:04;;;;;;;12.15;11.15;;;5.60;99.90;;;;;;5028299;28;20025;-88
2022/04/14 02:46:30;;;;;;;11.68;10.68;;;5.60;99.90;;;;;;5050925;28;20083;-88
2022/04/14 02:48:55;;;;;;;12.55;11.35;;;5.50;99.90;;;;;;5052495;28;20083;-88
2022/04/14 02:51:21;;;;;;;15.45;13.95;;;5.40;99.90;;;;;;5049875;28;20485;-88
2022/04/14 02:53:46;;;;;;;14.40;13.18;;;5.40;99.90;;;;;;5035051;28;20025;-88
2022/04/14 02:56:12;;;;;;;13.23;12.13;;;5.30;99.90;;;;;;5054252;28;20021;-87
2022/04/14 02:58:37;;;;;;;17.15;14.10;;;5.30;99.90;;;;;;5034432;28;20025;-88
2022/04/14 03:01:03;;;;;;;14.88;13.55;;;5.20;99.90;;;;;;5056877;28;20096;-88
2022/04/14 03:03:29;;;;;;;43.80;24.88;;;5.20;99.90;;;;;;5053022;28;20043;-88
2022/04/14 03:05:55;;;;;;;45.38;27.30;;;5.20;99.90;;;;;;5035078;28;21361;-88
2022/04/14 03:08:20;;;;;;;16.92;15.07;;;5.20;99.90;;;;;;5053747;28;20374;-88
2022/04/14 03:10:46;;;;;;;13.93;12.63;;;5.20;99.90;;;;;;5052825;28;20058;-88
2022/04/14 03:13:12;;;;;;;15.07;12.60;;;5.20;99.90;;;;;;5032779;28;20026;-87
2022/04/14 03:15:38;;;;;;;13.50;12.20;;;5.20;99.90;;;;;;5052193;28;20468;-88
2022/04/14 03:18:03;;;;;;;13.38;12.15;;;5.20;99.90;;;;;;5055393;28;20029;-88
2022/04/14 03:20:29;;;;;;;15.50;13.77;;;5.20;99.90;;;;;;5035760;28;20031;-87
2022/04/14 03:22:55;;;;;;;16.65;12.75;;;5.20;99.90;;;;;;5037136;28;20025;-88
2022/04/14 03:25:21;;;;;;;13.35;12.15;;;5.30;99.90;;;;;;5053761;28;20032;-88
2022/04/14 03:27:47;;;;;;;13.98;11.45;;;5.20;99.90;;;;;;5054448;28;20032;-86
2022/04/14 03:30:12;;;;;;;11.32;10.23;;;5.20;99.90;;;;;;5049535;28;20048;-88
2022/04/14 03:32:47;;;;;;;11.68;10.23;;;5.20;99.90;;;;;;5053783;28;20080;-88
2022/04/14 03:35:15;;;;;;;11.70;10.65;;;5.10;99.90;;;;;;5034512;28;20068;-87
2022/04/14 03:37:40;;;;;;;11.38;8.80;;;5.00;99.90;;;;;;5030141;28;20038;-88
2022/04/14 03:40:08;;;;;;;10.57;9.63;;;5.00;99.90;;;;;;5050659;28;20304;-88
2022/04/14 03:42:35;;;;;;;9.95;9.10;;;4.90;99.90;;;;;;5033050;28;20067;-88
2022/04/14 03:45:02;;;;;;;11.90;10.80;;;4.90;99.90;;;;;;5021818;28;20034;-88
2022/04/14 03:47:27;;;;;;;11.55;10.52;;;4.80;99.90;;;;;;5037144;28;20171;-88
2022/04/14 03:49:53;;;;;;;13.13;11.95;;;4.80;99.90;;;;;;5032399;28;20468;-88
2022/04/14 03:52:19;;;;;;;15.93;11.98;;;4.70;99.90;;;;;;5052678;28;20021;-85
2022/04/14 03:54:45;;;;;;;14.05;12.73;;;4.70;99.90;;;;;;5053152;28;20021;-88
2022/04/14 03:57:11;;;;;;;14.43;13.02;;;4.60;99.90;;;;;;5034827;28;20029;-87
2022/04/14 03:59:37;;;;;;;19.33;12.70;;;4.60;99.90;;;;;;5034505;28;20083;-88
2022/04/14 04:02:03;;;;;;;16.05;14.73;;;4.60;99.90;;;;;;5053567;28;20045;-88
2022/04/14 04:04:31;;;;;;;14.88;13.57;;;4.60;99.90;;;;;;5033773;28;20064;-88
2022/04/14 04:06:57;;;;;;;14.95;13.35;;;4.60;99.90;;;;;;5050387;28;20028;-87
2022/04/14 04:09:22;;;;;;;16.60;13.93;;;4.60;99.90;;;;;;5050984;28;20029;-88
2022/04/14 04:11:48;;;;;;;17.42;13.27;;;4.70;99.90;;;;;;5034416;28;20124;-87
2022/04/14 04:14:14;;;;;;;14.30;12.93;;;4.70;99.90;;;;;;5044720;28;20025;-88
2022/04/14 04:16:39;;;;;;;14.57;13.07;;;4.70;99.90;;;;;;5055275;28;20450;-88
2022/04/14 04:19:05;;;;;;;12.95;11.85;;;4.70;99.90;;;;;;5051103;28;20025;-88
2022/04/14 04:21:31;;;;;;;14.35;13.18;;;4.70;99.90;;;;;;5052912;28;20401;-87
2022/04/14 04:23:57;;;;;;;13.00;12.00;;;4.70;99.90;;;;;;5052520;28;20412;-86
2022/04/14 04:26:23;;;;;;;13.02;11.93;;;4.70;99.90;;;;;;5033627;28;20029;-88
2022/04/14 04:28:48;;;;;;;13.82;12.50;;;4.70;99.90;;;;;;5033943;28;20037;-87
2022/04/14 04:31:14;;;;;;;13.73;12.30;;;4.80;99.90;;;;;;5031586;28;20582;-88
2022/04/14 04:33:39;;;;;;;18.25;14.23;;;4.80;99.90;;;;;;5035439;28;20068;-88
2022/04/14 04:36:06;;;;;;;15.50;13.98;;;4.90;99.90;;;;;;5035306;28;20405;-88
2022/04/14 04:38:32;;;;;;;14.63;13.35;;;5.00;99.90;;;;;;5030895;28;20034;-87
2022/04/14 04:40:58;;;;;;;15.23;13.82;;;5.10;99.90;;;;;;5034602;28;20030;-88
2022/04/14 04:43:25;;;;;;;15.43;13.60;;;5.10;99.90;;;;;;5049765;28;20032;-87
2022/04/14 04:45:51;;;;;;;15.15;13.77;;;5.20;99.90;;;;;;5047247;28;20074;-87
2022/04/14 04:48:17;;;;;;;14.48;12.95;;;5.30;99.90;;;;;;5033518;28;20029;-88
2022/04/14 04:50:42;;;;;;;15.18;12.57;;;5.40;99.90;;;;;;5050946;28;20108;-88
2022/04/14 04:53:08;;;;;;;16.83;14.90;;;5.50;99.90;;;;;;5033636;28;20045;-88
2022/04/14 04:55:34;;;;;;;13.80;12.60;;;5.60;99.90;;;;;;5051076;28;20075;-88
2022/04/14 04:58:00;;;;;;;13.30;12.20;;;5.70;99.90;;;;;;5052134;28;20025;-87
2022/04/14 05:00:26;;;;;;;10.32;9.32;;;5.80;99.90;;;;;;5046835;28;20600;-88
2022/04/14 05:02:51;;;;;;;8.60;7.72;;;5.80;99.90;;;;;;5031696;28;20034;-87
2022/04/14 05:05:18;;;;;;;8.52;7.50;;;5.80;99.90;;;;;;5028231;28;20041;-88
2022/04/14 05:07:43;;;;;;;8.55;7.70;;;5.90;99.90;;;;;;5049449;28;20333;-88
2022/04/14 05:10:09;;;;;;;8.45;7.65;;;6.20;99.90;;;;;;5049627;28;20032;-87
2022/04/14 05:12:35;;;;;;;11.00;10.00;;;6.50;99.90;;;;;;5052189;28;20075;-87
2022/04/14 05:15:00;;;;;;;17.02;12.65;;;7.20;99.90;;;;;;5033490;28;20162;-88
2022/04/14 05:17:26;;;;;;;10.15;8.95;;;8.00;99.90;;;;;;5051475;28;20028;-89
2022/04/14 05:19:51;;;;;;;6.97;6.10;;;8.80;99.90;;;;;;5049398;28;20077;-88
2022/04/14 05:22:17;;;;;;;8.25;5.55;;;9.20;99.90;;;;;;5052413;28;20059;-89
2022/04/14 05:24:43;;;;;;;6.47;5.78;;;9.90;99.90;;;;;;5051300;28;20100;-87
2022/04/14 05:27:08;;;;;;;5.82;5.32;;;10.50;99.90;;;;;;5034144;28;20033;-88
2022/04/14 05:29:36;;;;;;;6.50;5.90;;;11.20;99.90;;;;;;5033008;28;20040;-88
2022/04/14 05:32:01;;;;;;;7.55;6.13;;;12.00;99.90;;;;;;5028527;28;20120;-88
2022/04/14 05:34:27;;;;;;;6.50;5.90;;;12.90;99.90;;;;;;5030474;28;20159;-89
2022/04/14 05:36:52;;;;;;;6.43;5.78;;;13.60;99.90;;;;;;5048614;28;20424;-88
2022/04/14 05:39:18;;;;;;;8.43;5.68;;;14.10;99.90;;;;;;5032214;28;20025;-88
2022/04/14 05:41:44;;;;;;;9.23;5.43;;;14.80;99.90;;;;;;5050669;28;20025;-87
2022/04/14 05:44:10;;;;;;;5.30;4.80;;;15.50;99.90;;;;;;5033409;28;20032;-89
2022/04/14 05:46:35;;;;;;;7.90;5.47;;;16.30;90.60;;;;;;5050316;28;20029;-88
2022/04/14 05:49:01;;;;;;;7.00;5.20;;;16.60;85.50;;;;;;5032457;28;20029;-88
2022/04/14 05:51:27;;;;;;;7.03;4.95;;;16.90;82.50;;;;;;5031361;28;20033;-88
2022/04/14 05:53:53;;;;;;;4.75;4.13;;;17.00;81.80;;;;;;5049691;28;20370;-88
2022/04/14 05:56:19;;;;;;;5.70;4.88;;;17.40;86.40;;;;;;5049850;28;20036;-88
2022/04/14 05:58:45;;;;;;;4.95;4.53;;;18.20;84.40;;;;;;5051695;28;20032;-88
2022/04/14 06:01:11;;;;;;;5.82;5.30;;;19.00;72.10;;;;;;5032502;28;20063;-89
2022/04/14 06:03:38;;;;;;;10.63;5.30;;;19.60;68.50;;;;;;5032654;28;20033;-89
2022/04/14 06:06:04;;;;;;;5.72;5.28;;;20.00;68.40;;;;;;5031745;28;20451;-88
2022/04/14 06:08:30;;;;;;;6.47;5.90;;;20.40;65.60;;;;;;5032722;28;20033;-88
2022/04/14 06:10:55;;;;;;;6.38;5.78;;;20.60;64.00;;;;;;5050543;28;20045;-87
2022/04/14 06:13:21;;;;;;;6.40;5.90;;;21.00;62.10;;;;;;5051229;28;20036;-88
2022/04/14 06:15:46;;;;;;;6.13;5.53;;;20.00;63.10;;;;;;5032429;28;20074;-87
2022/04/14 06:18:12;;;;;;;6.88;6.38;;;19.40;64.80;;;;;;5047086;28;20037;-88
2022/04/14 06:20:38;;;;;;;7.00;6.35;;;18.50;68.00;;;;;;5049721;28;20499;-89
2022/04/14 06:23:03;;;;;;;10.35;6.82;;;17.60;71.90;;;;;;5049801;28;20029;-87
2022/04/14 06:25:29;;;;;;;7.70;6.53;;;16.70;77.40;;;;;;5032399;28;20412;-87
2022/04/14 06:27:55;;;;;;;6.85;6.25;;;15.60;85.10;;;;;;5031270;28;20055;-88
2022/04/14 06:30:21;;;;;;;7.47;5.97;;;15.40;92.50;;;;;;5048784;28;20120;-88
2022/04/14 06:33:04;;;;;;;5.50;4.95;;;15.30;94.40;;;;;;5031416;28;20496;-86
2022/04/14 06:35:30;;;;;;;6.95;6.35;;;15.40;93.10;;;;;;5029862;28;20048;-89
2022/04/14 06:37:57;;;;;;;5.68;5.22;;;15.70;93.10;;;;;;5033170;28;20122;-87
2022/04/14 06:40:23;;;;;;;11.10;5.55;;;16.50;90.60;;;;;;5049555;28;20021;-88
2022/04/14 06:42:49;;;;;;;6.15;5.40;;;17.60;85.20;;;;;;5049406;28;20018;-88
2022/04/14 06:45:16;;;;;;;7.95;5.60;;;18.20;78.00;;;;;;5049612;28;20036;-89
2022/04/14 06:47:42;;;;;;;7.55;6.13;;;18.90;74.10;;;;;;5049862;28;20029;-89
2022/04/14 06:50:08;;;;;;;7.43;5.43;;;19.20;72.90;;;;;;5050114;28;20021;-89
2022/04/14 06:52:34;;;;;;;5.38;4.95;;;19.80;69.10;;;;;;5049828;28;20033;-90
2022/04/14 06:55:00;;;;;;;5.97;5.50;;;20.70;67.50;;;;;;5050418;28;20040;-89
2022/04/14 06:57:26;;;;;;;6.03;5.53;;;21.70;62.80;;;;;;5051468;28;20037;-89
2022/04/14 06:59:51;;;;;;;6.20;5.80;;;22.10;62.90;;;;;;5033381;28;20400;-89
2022/04/14 07:02:17;;;;;;;5.72;5.13;;;22.00;61.10;;;;;;5046764;28;20041;-89
2022/04/14 07:04:43;;;;;;;7.40;5.95;;;22.60;61.60;;;;;;5049390;28;20037;-89
2022/04/14 07:07:08;;;;;;;9.43;5.55;;;23.10;59.90;;;;;;5035153;28;20029;-89
2022/04/14 07:09:34;;;;;;;5.90;5.40;;;23.50;57.80;;;;;;5050377;28;20053;-89
2022/04/14 07:12:04;;;;;;;6.25;5.70;;;23.30;58.30;;;;;;5049514;28;20128;-89
2022/04/14 07:14:30;;;;;;;7.07;5.63;;;23.00;59.00;;;;;;5029697;28;20029;-87
2022/04/14 07:17:00;;;;;;;7.22;6.07;;;22.80;60.80;;;;;;5049664;28;20056;-89
2022/04/14 07:19:26;;;;;;;7.00;5.78;;;22.50;62.30;;;;;;5049040;28;20037;-89
2022/04/14 07:21:52;;;;;;;6.93;6.35;;;22.40;61.90;;;;;;5033360;28;20025;-89
2022/04/14 07:24:18;;;;;;;7.55;5.75;;;22.00;60.80;;;;;;5050828;28;20037;-89
2022/04/14 07:26:44;;;;;;;7.82;6.43;;;21.50;62.30;;;;;;5035160;28;20025;-89
2022/04/14 07:29:10;;;;;;;7.60;6.90;;;20.90;65.70;;;;;;5061374;28;20045;-89
2022/04/14 07:31:37;;;;;;;7.97;7.18;;;20.80;65.20;;;;;;5060247;28;20098;-89
2022/04/14 07:34:05;;;;;;;14.00;7.53;;;20.90;64.30;;;;;;5055566;28;20033;-89
2022/04/14 07:36:30;;;;;;;10.57;8.40;;;20.90;65.50;;;;;;5065174;28;20033;-89
2022/04/14 07:38:56;;;;;;;9.52;8.43;;;21.30;63.80;;;;;;5039746;28;20034;-88
2022/04/14 07:41:22;;;;;;;13.07;9.10;;;21.40;64.20;;;;;;5060949;28;20493;-89
2022/04/14 07:43:47;;;;;;;10.75;9.65;;;21.70;63.10;;;;;;5055869;28;20021;-88
2022/04/14 07:46:13;;;;;;;13.15;9.48;;;21.70;63.20;;;;;;5043925;28;20029;-89
2022/04/14 07:48:38;;;;;;;11.07;10.07;;;21.90;62.20;;;;;;5059888;28;20009;-89
2022/04/14 07:51:04;;;;;;;12.77;10.35;;;22.00;62.90;;;;;;5056901;28;20033;-89
2022/04/14 07:53:31;;;;;;;11.85;10.75;;;22.60;61.90;;;;;;5036366;28;20436;-89
2022/04/14 07:55:56;;;;;;;13.02;10.18;;;23.20;59.90;;;;;;5036701;28;20044;-89
2022/04/14 07:58:23;;;;;;;13.70;12.13;;;24.20;59.00;;;;;;5057905;28;20029;-89
2022/04/14 08:00:51;;;;;;;14.15;12.00;;;24.80;56.40;;;;;;5036958;28;20082;-89
2022/04/14 08:03:17;;;;;;;13.85;11.93;;;24.70;56.40;;;;;;5025185;28;20063;-89
2022/04/14 08:05:45;;;;;;;11.27;10.25;;;24.50;56.40;;;;;;5056385;28;20037;-89
2022/04/14 08:08:16;;;;;;;13.30;12.07;;;24.00;58.10;;;;;;5060768;28;20529;-89
2022/04/14 08:10:43;;;;;;;13.82;12.50;;;23.60;58.20;;;;;;5040809;28;20033;-89
2022/04/14 08:13:09;;;;;;;13.48;12.05;;;22.60;60.50;;;;;;5056464;28;20455;-89
2022/04/14 08:15:36;;;;;;;13.25;11.93;;;21.90;63.20;;;;;;5037102;28;20017;-89
2022/04/14 08:18:02;;;;;;;14.00;12.15;;;21.60;65.50;;;;;;5037338;28;20033;-88
2022/04/14 08:20:29;;;;;;;15.07;13.77;;;21.40;66.40;;;;;;5039973;28;20025;-87
2022/04/14 08:22:56;;;;;;;19.98;14.02;;;21.30;66.60;;;;;;5040490;28;20122;-89
2022/04/14 08:25:27;;;;;;;15.60;14.30;;;21.30;68.50;;;;;;5034624;28;20021;-88
2022/04/14 08:27:53;;;;;;;14.07;12.80;;;21.50;66.60;;;;;;5057496;28;20025;-89
2022/04/14 08:30:21;;;;;;;16.05;13.88;;;22.00;67.90;;;;;;5035402;28;20192;-88
2022/04/14 08:32:48;;;;;;;15.52;14.07;;;23.10;63.20;;;;;;5058923;28;20037;-88
2022/04/14 08:35:15;;;;;;;15.77;14.35;;;24.00;60.90;;;;;;5032771;28;20036;-89
2022/04/14 08:37:42;;;;;;;16.08;14.57;;;24.50;59.20;;;;;;5033933;28;20029;-89
2022/04/14 08:40:11;;;;;;;16.58;14.70;;;25.30;58.90;;;;;;5058404;28;20079;-89
2022/04/14 08:42:39;;;;;;;15.38;14.02;;;25.60;56.20;;;;;;5058599;28;20025;-86
2022/04/14 08:45:08;;;;;;;19.65;14.57;;;25.30;56.10;;;;;;5056488;28;20197;-85
2022/04/14 08:47:36;;;;;;;19.38;15.48;;;24.80;57.30;;;;;;5055213;28;20032;-86
2022/04/14 08:50:04;;;;;;;16.55;14.60;;;24.10;56.30;;;;;;5060808;28;20029;-85
2022/04/14 08:52:34;;;;;;;17.98;16.30;;;23.70;59.20;;;;;;5049309;28;20059;-86
2022/04/14 08:55:01;;;;;;;18.10;15.30;;;23.40;57.60;;;;;;5067437;28;20148;-86
2022/04/14 08:57:27;;;;;;;16.58;15.18;;;23.00;60.40;;;;;;5043651;28;20040;-86
2022/04/14 08:59:54;;;;;;;16.83;15.20;;;22.90;61.40;;;;;;5028080;28;20039;-87
2022/04/14 09:02:23;;;;;;;15.73;14.23;;;23.00;60.30;;;;;;5035912;28;20394;-86
2022/04/14 09:04:49;;;;;;;16.45;14.82;;;23.10;62.20;;;;;;5062240;28;20040;-85
2022/04/14 09:07:16;;;;;;;14.98;13.48;;;23.70;59.70;;;;;;5034333;28;20021;-86
2022/04/14 09:09:41;;;;;;;16.08;13.80;;;24.60;57.70;;;;;;5054327;28;20021;-86
2022/04/14 09:12:09;;;;;;;13.90;12.82;;;25.90;55.80;;;;;;5049993;28;20111;-86
2022/04/14 09:14:34;;;;;;;17.17;12.57;;;26.90;54.20;;;;;;5059406;28;20084;-87
2022/04/14 09:17:02;;;;;;;15.73;13.05;;;28.20;52.20;;;;;;5046023;28;20060;-86
2022/04/14 09:19:32;;;;;;;14.75;13.35;;;29.00;49.40;;;;;;5033522;28;20029;-86
2022/04/14 09:22:04;;;;;;;12.38;11.07;;;29.30;49.00;;;;;;5057261;28;20032;-86
2022/04/14 09:24:39;;;;;;;12.45;11.45;;;29.30;49.30;;;;;;5061680;28;20036;-86
2022/04/14 09:27:06;;;;;;;12.65;10.25;;;29.80;48.00;;;;;;5031104;28;20032;-86
2022/04/14 09:29:32;;;;;;;13.32;10.82;;;30.10;47.10;;;;;;5033366;28;20037;-86
2022/04/14 09:31:58;;;;;;;10.68;9.63;;;30.20;47.60;;;;;;5026073;28;20033;-86
2022/04/14 09:34:48;;;;;;;14.35;9.75;;;30.20;46.70;;;;;;5053964;28;20025;-87
2022/04/14 09:37:14;;;;;;;10.32;9.43;;;29.90;47.30;;;;;;5044499;28;20025;-86
2022/04/14 09:39:59;;;;;;;11.80;10.65;;;30.20;47.80;;;;;;5038256;28;20037;-87
2022/04/14 09:42:30;;;;;;;10.85;9.80;;;30.30;47.40;;;;;;5035546;28;20478;-86
2022/04/14 09:45:15;;;;;;;12.23;11.27;;;30.60;46.40;;;;;;5032912;28;20067;-87
2022/04/14 09:47:40;;;;;;;11.90;10.95;;;30.30;47.40;;;;;;5050745;28;20047;-88
2022/04/14 09:50:27;;;;;;;11.38;10.48;;;30.40;46.80;;;;;;5050656;28;20033;-86
2022/04/14 09:53:07;;;;;;;12.38;10.98;;;30.30;46.20;;;;;;5030314;28;20035;-89
2022/04/14 09:55:35;;;;;;;12.82;11.57;;;30.20;46.90;;;;;;5033714;28;20075;-88
2022/04/14 09:58:13;;;;;;;10.48;9.68;;;30.20;45.80;;;;;;5052105;28;20025;-87
2022/04/14 10:00:39;;;;;;;11.02;9.60;;;29.70;47.50;;;;;;5050628;28;20049;-87
2022/04/14 10:03:14;;;;;;;11.82;10.63;;;29.60;47.80;;;;;;5031868;28;20025;-87
2022/04/14 10:05:40;;;;;;;12.55;10.68;;;29.70;47.20;;;;;;5031459;28;20033;-87
2022/04/14 10:08:09;;;;;;;11.82;10.65;;;29.30;47.50;;;;;;5032480;28;20039;-88
2022/04/14 10:10:40;;;;;;;10.82;9.52;;;29.00;47.30;;;;;;5053593;28;20462;-86
2022/04/14 10:13:10;;;;;;;11.25;10.25;;;29.50;48.30;;;;;;5041537;28;20489;-88
2022/04/14 10:15:37;;;;;;;;;;;29.80;47.20;;;;;;5030339;28;20253;-88
2022/04/14 10:18:06;;;;;;;10.15;9.23;;;29.80;47.10;;;;;;5049545;28;19912;-88
2022/04/14 10:20:33;;;;;;;11.55;10.10;;;30.20;45.90;;;;;;5033034;28;20029;-87
2022/04/14 10:23:00;;;;;;;10.27;9.38;;;30.50;45.60;;;;;;5032425;28;20087;-87
2022/04/14 10:25:27;;;;;;;11.50;10.30;;;30.70;45.90;;;;;;5050122;28;20036;-87
2022/04/14 10:27:56;;;;;;;8.98;8.10;;;30.50;44.70;;;;;;5032498;28;20025;-88
2022/04/14 10:30:21;;;;;;;16.50;8.10;;;30.60;46.40;;;;;;5049647;28;20619;-87
2022/04/14 10:32:47;;;;;;;11.32;8.48;;;30.70;46.00;;;;;;5031225;28;20041;-87
2022/04/14 10:35:13;;;;;;;9.57;8.02;;;30.90;45.70;;;;;;5031536;28;20492;-87
2022/04/14 10:37:50;;;;;;;8.27;7.47;;;31.20;45.50;;;;;;5032417;28;20107;-88
2022/04/14 10:40:15;;;;;;;9.10;8.10;;;31.00;44.60;;;;;;5048933;28;20025;-87
2022/04/14 10:42:48;;;;;;;9.45;8.50;;;31.20;43.70;;;;;;5043071;28;20017;-87
2022/04/14 10:45:17;;;;;;;8.50;7.68;;;31.20;43.50;;;;;;5045031;28;20040;-87
2022/04/14 10:47:42;;;;;;;13.05;8.27;;;31.20;44.60;;;;;;5048293;28;20029;-87
2022/04/14 10:50:19;;;;;;;10.10;7.85;;;30.00;45.50;;;;;;5031818;28;20032;-86
2022/04/14 10:53:05;;;;;;;7.68;6.80;;;29.90;46.70;;;;;;5046586;28;20102;-87
2022/04/14 10:55:45;;;;;;;8.32;7.15;;;30.30;47.80;;;;;;5049451;28;20043;-86
2022/04/14 10:58:37;;;;;;;8.70;7.10;;;30.40;46.00;;;;;;5049283;28;20497;-88
2022/04/14 11:01:03;;;;;;;9.35;7.97;;;30.30;45.50;;;;;;5017380;28;20829;-86
2022/04/14 11:03:47;;;;;;;6.82;6.10;;;29.20;45.30;;;;;;5051185;28;20544;-87
2022/04/14 11:06:47;;;;;;;9.32;8.02;;;29.40;46.50;;;;;;5048642;28;20075;-88
2022/04/14 11:09:41;;;;;;;9.63;8.77;;;28.60;48.30;;;;;;5039805;28;20493;-86
2022/04/14 11:12:20;;;;;;;8.48;7.55;;;27.90;46.90;;;;;;5036639;28;20029;-85
2022/04/14 11:14:50;;;;;;;7.28;6.22;;;27.90;48.80;;;;;;5052026;28;20029;-85
2022/04/14 11:20:30;;;;;;;;;;;28.30;48.00;;;;;;5049178;28;20033;-86
2022/04/14 11:23:05;;;;;;;8.68;6.88;;;28.00;47.70;;;;;;4993306;28;20023;-85
2022/04/14 11:25:41;;;;;;;10.02;7.28;;;28.30;47.50;;;;;;5035393;28;20465;-86
2022/04/14 11:28:33;;;;;;;6.85;6.18;;;28.00;49.00;;;;;;5035026;28;20033;-86
2022/04/14 11:31:19;;;;;;;10.80;6.47;;;28.10;51.00;;;;;;5031200;28;20033;-86
2022/04/14 11:33:49;;;;;;;6.65;6.13;;;28.40;48.40;;;;;;5008950;28;20053;-87
2022/04/14 11:36:21;;;;;;;5.05;4.65;;;28.20;49.40;;;;;;5050694;28;20064;-86
2022/04/14 11:38:55;;;;;;;8.85;5.95;;;28.30;49.70;;;;;;5049342;28;20025;-86
2022/04/14 11:41:37;;;;;;;6.10;5.03;;;28.10;49.70;;;;;;5033789;28;20045;-85
2022/04/14 11:44:06;;;;;;;5.40;4.90;;;27.80;50.20;;;;;;5044283;28;20029;-86
2022/04/14 11:46:34;;;;;;;10.10;5.07;;;27.60;50.70;;;;;;5034044;28;20079;-87
2022/04/14 11:49:00;;;;;;;7.25;6.20;;;27.50;51.90;;;;;;5034832;28;20048;-85
2022/04/14 11:51:29;;;;;;;6.68;5.97;;;27.40;51.30;;;;;;5050799;28;20092;-88
2022/04/14 11:53:56;;;;;;;19.20;6.65;;;27.10;50.90;;;;;;5054309;28;20022;-89
2022/04/14 11:56:23;;;;;;;5.95;4.88;;;26.80;51.70;;;;;;5054870;28;20021;-87
2022/04/14 11:58:49;;;;;;;6.18;5.28;;;26.40;51.30;;;;;;5059908;28;20033;-87
2022/04/14 12:01:15;;;;;;;6.07;5.43;;;26.20;51.90;;;;;;5053020;28;20017;-88
2022/04/14 12:03:44;;;;;;;5.28;4.78;;;26.00;52.70;;;;;;5048874;28;20027;-87
2022/04/14 12:06:11;;;;;;;5.18;4.45;;;26.30;51.80;;;;;;5034975;28;20040;-87
2022/04/14 12:08:38;;;;;;;6.30;4.47;;;26.30;52.30;;;;;;5053472;28;20029;-86
2022/04/14 12:11:12;;;;;;;4.88;4.38;;;26.80;53.90;;;;;;5033981;28;20025;-87
2022/04/14 12:13:38;;;;;;;7.45;5.45;;;27.20;51.60;;;;;;5053234;28;20172;-87
2022/04/14 12:16:09;;;;;;;6.15;4.78;;;27.70;49.80;;;;;;5035776;28;20021;-87
2022/04/14 12:18:37;;;;;;;5.18;4.65;;;27.80;49.90;;;;;;5047077;28;20060;-87
2022/04/14 12:21:04;;;;;;;4.55;3.97;;;27.90;49.30;;;;;;5044819;28;20032;-86
2022/04/14 12:23:31;;;;;;;4.68;3.83;;;28.00;49.80;;;;;;5052005;28;20448;-87
2022/04/14 12:25:58;;;;;;;5.88;4.10;;;27.90;51.60;;;;;;5052076;28;20082;-86
2022/04/14 12:28:24;;;;;;;4.57;3.67;;;27.90;51.10;;;;;;5033881;28;20025;-86
2022/04/14 12:30:50;;;;;;;5.55;4.28;;;27.90;51.20;;;;;;5052501;28;20024;-85
2022/04/14 12:33:25;;;;;;;4.47;3.83;;;28.00;50.20;;;;;;5052111;28;20385;-87
2022/04/14 12:35:50;;;;;;;5.47;3.97;;;27.20;51.00;;;;;;5048291;28;20025;-87
2022/04/14 12:38:17;;;;;;;7.30;3.58;;;26.80;52.30;;;;;;5046929;28;20040;-87
2022/04/14 12:40:56;;;;;;;5.45;4.60;;;26.70;53.60;;;;;;5052498;28;20420;-87
2022/04/14 12:43:33;;;;;;;7.78;4.25;;;26.40;52.70;;;;;;5050756;28;20079;-88
2022/04/14 12:45:59;;;;;;;4.20;3.70;;;26.60;54.20;;;;;;5031273;28;20048;-87
2022/04/14 12:48:35;;;;;;;7.75;4.38;;;26.90;52.70;;;;;;5051507;28;20100;-87